sensor_id;sensor_type;location;lat;lon;timestamp;P1;durP1;ratioP1;P2;durP2;ratioP2
40170;SDS011;37650;52.790;18.268;2022-07-04T00:00:09;7.20;;;6.50;;
40170;SDS011;37650;52.790;18.268;2022-07-04T00:03:38;7.40;;;6.70;;
40170;SDS011;37650;52.790;18.268;2022-07-04T00:06:59;9.30;;;7.70;;
40170;SDS011;37650;52.790;18.268;2022-07-04T00:10:20;9.10;;;7.70;;
40170;SDS011;37650;52.790;18.268;2022-07-04T00:13:41;9.50;;;7.20;;
40170;SDS011;37650;52.790;18.268;2022-07-04T00:17:02;8.70;;;7.40;;
40170;SDS011;37650;52.790;18.268;2022-07-04T00:20:23;9.10;;;7.50;;
40170;SDS011;37650;52.790;18.268;2022-07-04T00:23:45;7.50;;;6.60;;
40170;SDS011;37650;52.790;18.268;2022-07-04T00:27:06;8.90;;;8.00;;
40170;SDS011;37650;52.790;18.268;2022-07-04T00:30:27;7.90;;;7.10;;
40170;SDS011;37650;52.790;18.268;2022-07-04T00:33:48;8.10;;;7.00;;
40170;SDS011;37650;52.790;18.268;2022-07-04T00:37:08;9.00;;;7.50;;
40170;SDS011;37650;52.790;18.268;2022-07-04T00:40:29;9.00;;;7.50;;
40170;SDS011;37650;52.790;18.268;2022-07-04T00:44:00;8.30;;;7.30;;
40170;SDS011;37650;52.790;18.268;2022-07-04T00:47:21;7.40;;;6.70;;
40170;SDS011;37650;52.790;18.268;2022-07-04T00:50:45;7.60;;;6.90;;
40170;SDS011;37650;52.790;18.268;2022-07-04T00:54:08;8.20;;;7.00;;
40170;SDS011;37650;52.790;18.268;2022-07-04T00:57:29;8.80;;;7.90;;
40170;SDS011;37650;52.790;18.268;2022-07-04T01:00:50;10.40;;;6.40;;
40170;SDS011;37650;52.790;18.268;2022-07-04T01:04:11;6.90;;;5.70;;
40170;SDS011;37650;52.790;18.268;2022-07-04T01:07:32;8.40;;;6.40;;
40170;SDS011;37650;52.790;18.268;2022-07-04T01:10:52;7.60;;;6.70;;
40170;SDS011;37650;52.790;18.268;2022-07-04T01:14:14;9.20;;;8.10;;
40170;SDS011;37650;52.790;18.268;2022-07-04T01:17:35;9.30;;;8.10;;
40170;SDS011;37650;52.790;18.268;2022-07-04T01:20:56;12.30;;;9.70;;
40170;SDS011;37650;52.790;18.268;2022-07-04T01:24:17;9.50;;;8.50;;
40170;SDS011;37650;52.790;18.268;2022-07-04T01:27:38;13.60;;;9.50;;
40170;SDS011;37650;52.790;18.268;2022-07-04T01:30:59;13.60;;;11.30;;
40170;SDS011;37650;52.790;18.268;2022-07-04T01:34:21;11.70;;;9.60;;
40170;SDS011;37650;52.790;18.268;2022-07-04T01:37:41;11.90;;;9.10;;
40170;SDS011;37650;52.790;18.268;2022-07-04T01:41:02;9.50;;;8.00;;
40170;SDS011;37650;52.790;18.268;2022-07-04T01:44:23;9.60;;;7.50;;
40170;SDS011;37650;52.790;18.268;2022-07-04T01:47:43;9.10;;;7.70;;
40170;SDS011;37650;52.790;18.268;2022-07-04T01:51:04;9.00;;;8.10;;
40170;SDS011;37650;52.790;18.268;2022-07-04T01:54:25;8.40;;;6.80;;
40170;SDS011;37650;52.790;18.268;2022-07-04T01:57:46;10.10;;;6.30;;
40170;SDS011;37650;52.790;18.268;2022-07-04T02:01:08;7.50;;;6.80;;
40170;SDS011;37650;52.790;18.268;2022-07-04T02:04:46;7.80;;;6.50;;
40170;SDS011;37650;52.790;18.268;2022-07-04T02:08:07;9.30;;;7.40;;
40170;SDS011;37650;52.790;18.268;2022-07-04T02:11:31;7.80;;;6.50;;
40170;SDS011;37650;52.790;18.268;2022-07-04T02:15:12;8.10;;;7.20;;
40170;SDS011;37650;52.790;18.268;2022-07-04T02:18:33;7.60;;;6.70;;
40170;SDS011;37650;52.790;18.268;2022-07-04T02:21:53;7.40;;;6.60;;
40170;SDS011;37650;52.790;18.268;2022-07-04T02:25:14;8.90;;;7.00;;
40170;SDS011;37650;52.790;18.268;2022-07-04T02:28:35;9.80;;;7.80;;
40170;SDS011;37650;52.790;18.268;2022-07-04T02:31:57;13.60;;;9.70;;
40170;SDS011;37650;52.790;18.268;2022-07-04T02:35:18;10.30;;;8.10;;
40170;SDS011;37650;52.790;18.268;2022-07-04T02:38:39;10.00;;;8.00;;
40170;SDS011;37650;52.790;18.268;2022-07-04T02:42:00;8.60;;;7.00;;
40170;SDS011;37650;52.790;18.268;2022-07-04T02:45:21;7.50;;;6.20;;
40170;SDS011;37650;52.790;18.268;2022-07-04T02:48:42;6.40;;;5.60;;
40170;SDS011;37650;52.790;18.268;2022-07-04T02:52:03;7.50;;;5.10;;
40170;SDS011;37650;52.790;18.268;2022-07-04T02:55:24;8.60;;;5.20;;
40170;SDS011;37650;52.790;18.268;2022-07-04T02:58:45;6.30;;;5.30;;
40170;SDS011;37650;52.790;18.268;2022-07-04T03:02:06;6.70;;;5.70;;
40170;SDS011;37650;52.790;18.268;2022-07-04T03:05:27;9.40;;;5.90;;
40170;SDS011;37650;52.790;18.268;2022-07-04T03:08:52;8.90;;;5.40;;
40170;SDS011;37650;52.790;18.268;2022-07-04T03:12:13;9.30;;;5.30;;
40170;SDS011;37650;52.790;18.268;2022-07-04T03:15:34;6.60;;;5.90;;
40170;SDS011;37650;52.790;18.268;2022-07-04T03:18:54;6.60;;;5.50;;
40170;SDS011;37650;52.790;18.268;2022-07-04T03:22:15;7.60;;;5.70;;
40170;SDS011;37650;52.790;18.268;2022-07-04T03:25:36;8.40;;;6.10;;
40170;SDS011;37650;52.790;18.268;2022-07-04T03:28:58;7.60;;;6.50;;
40170;SDS011;37650;52.790;18.268;2022-07-04T03:32:20;8.60;;;6.40;;
40170;SDS011;37650;52.790;18.268;2022-07-04T03:35:40;6.70;;;6.00;;
40170;SDS011;37650;52.790;18.268;2022-07-04T03:39:02;8.60;;;7.10;;
40170;SDS011;37650;52.790;18.268;2022-07-04T03:42:22;10.30;;;5.60;;
40170;SDS011;37650;52.790;18.268;2022-07-04T03:45:43;7.00;;;5.10;;
40170;SDS011;37650;52.790;18.268;2022-07-04T03:49:04;9.50;;;5.50;;
40170;SDS011;37650;52.790;18.268;2022-07-04T03:52:25;7.80;;;5.70;;
40170;SDS011;37650;52.790;18.268;2022-07-04T03:55:46;5.70;;;5.10;;
40170;SDS011;37650;52.790;18.268;2022-07-04T03:59:07;10.00;;;5.80;;
40170;SDS011;37650;52.790;18.268;2022-07-04T04:02:28;7.50;;;5.00;;
40170;SDS011;37650;52.790;18.268;2022-07-04T04:05:49;8.40;;;4.80;;
40170;SDS011;37650;52.790;18.268;2022-07-04T04:09:09;8.50;;;5.10;;
40170;SDS011;37650;52.790;18.268;2022-07-04T04:12:36;8.20;;;5.30;;
40170;SDS011;37650;52.790;18.268;2022-07-04T04:15:57;8.50;;;5.00;;
40170;SDS011;37650;52.790;18.268;2022-07-04T04:19:18;6.30;;;5.30;;
40170;SDS011;37650;52.790;18.268;2022-07-04T04:22:39;7.10;;;4.50;;
40170;SDS011;37650;52.790;18.268;2022-07-04T04:26:00;8.30;;;4.30;;
40170;SDS011;37650;52.790;18.268;2022-07-04T04:29:21;7.30;;;4.50;;
40170;SDS011;37650;52.790;18.268;2022-07-04T04:32:42;9.40;;;4.50;;
40170;SDS011;37650;52.790;18.268;2022-07-04T04:36:02;8.50;;;4.50;;
40170;SDS011;37650;52.790;18.268;2022-07-04T04:39:24;9.00;;;5.10;;
40170;SDS011;37650;52.790;18.268;2022-07-04T04:42:44;10.70;;;5.20;;
40170;SDS011;37650;52.790;18.268;2022-07-04T04:46:05;8.50;;;5.40;;
40170;SDS011;37650;52.790;18.268;2022-07-04T04:49:26;8.30;;;5.00;;
40170;SDS011;37650;52.790;18.268;2022-07-04T04:52:47;6.80;;;4.40;;
40170;SDS011;37650;52.790;18.268;2022-07-04T04:56:07;8.40;;;4.50;;
40170;SDS011;37650;52.790;18.268;2022-07-04T04:59:28;6.90;;;3.90;;
40170;SDS011;37650;52.790;18.268;2022-07-04T05:02:50;8.70;;;4.20;;
40170;SDS011;37650;52.790;18.268;2022-07-04T05:06:13;8.40;;;4.70;;
40170;SDS011;37650;52.790;18.268;2022-07-04T05:09:38;8.00;;;4.80;;
40170;SDS011;37650;52.790;18.268;2022-07-04T05:13:08;8.10;;;4.20;;
40170;SDS011;37650;52.790;18.268;2022-07-04T05:16:29;9.40;;;4.70;;
40170;SDS011;37650;52.790;18.268;2022-07-04T05:19:50;8.90;;;4.40;;
40170;SDS011;37650;52.790;18.268;2022-07-04T05:23:11;7.00;;;4.40;;
40170;SDS011;37650;52.790;18.268;2022-07-04T05:26:32;10.00;;;4.40;;
40170;SDS011;37650;52.790;18.268;2022-07-04T05:29:53;9.40;;;4.50;;
40170;SDS011;37650;52.790;18.268;2022-07-04T05:33:14;9.80;;;4.90;;
40170;SDS011;37650;52.790;18.268;2022-07-04T05:36:35;8.60;;;4.40;;
40170;SDS011;37650;52.790;18.268;2022-07-04T05:39:56;7.70;;;4.20;;
40170;SDS011;37650;52.790;18.268;2022-07-04T05:43:17;8.30;;;5.30;;
40170;SDS011;37650;52.790;18.268;2022-07-04T05:46:38;8.20;;;5.00;;
40170;SDS011;37650;52.790;18.268;2022-07-04T05:49:59;11.30;;;5.30;;
40170;SDS011;37650;52.790;18.268;2022-07-04T05:53:20;9.10;;;5.00;;
40170;SDS011;37650;52.790;18.268;2022-07-04T05:56:41;8.60;;;4.90;;
40170;SDS011;37650;52.790;18.268;2022-07-04T06:00:03;9.80;;;5.50;;
40170;SDS011;37650;52.790;18.268;2022-07-04T06:03:26;8.90;;;6.10;;
40170;SDS011;37650;52.790;18.268;2022-07-04T06:06:46;10.90;;;8.80;;
40170;SDS011;37650;52.790;18.268;2022-07-04T06:10:07;12.10;;;7.70;;
40170;SDS011;37650;52.790;18.268;2022-07-04T06:13:29;11.80;;;7.90;;
40170;SDS011;37650;52.790;18.268;2022-07-04T06:16:51;12.00;;;6.70;;
40170;SDS011;37650;52.790;18.268;2022-07-04T06:20:12;10.60;;;6.30;;
40170;SDS011;37650;52.790;18.268;2022-07-04T06:23:33;11.90;;;6.30;;
40170;SDS011;37650;52.790;18.268;2022-07-04T06:26:54;8.00;;;5.10;;
40170;SDS011;37650;52.790;18.268;2022-07-04T06:30:15;8.90;;;5.50;;
40170;SDS011;37650;52.790;18.268;2022-07-04T06:33:36;7.30;;;4.70;;
40170;SDS011;37650;52.790;18.268;2022-07-04T06:37:18;8.90;;;6.00;;
40170;SDS011;37650;52.790;18.268;2022-07-04T06:40:39;8.90;;;5.80;;
40170;SDS011;37650;52.790;18.268;2022-07-04T06:44:01;9.60;;;5.20;;
40170;SDS011;37650;52.790;18.268;2022-07-04T06:47:21;7.80;;;5.20;;
40170;SDS011;37650;52.790;18.268;2022-07-04T06:50:42;11.40;;;5.70;;
40170;SDS011;37650;52.790;18.268;2022-07-04T06:54:03;9.10;;;5.10;;
